sensor_id;sensor_type;location;lat;lon;timestamp;P1;durP1;ratioP1;P2;durP2;ratioP2
6679;SDS011;3376;42.664;23.346;2024-01-25T00:01:17;26.60;;;21.43;;
6679;SDS011;3376;42.664;23.346;2024-01-25T00:03:44;25.10;;;19.03;;
6679;SDS011;3376;42.664;23.346;2024-01-25T00:06:12;24.10;;;17.93;;
6679;SDS011;3376;42.664;23.346;2024-01-25T00:08:39;21.87;;;17.20;;
6679;SDS011;3376;42.664;23.346;2024-01-25T00:11:06;24.63;;;18.57;;
6679;SDS011;3376;42.664;23.346;2024-01-25T00:13:34;22.97;;;17.03;;
6679;SDS011;3376;42.664;23.346;2024-01-25T00:16:03;18.80;;;15.87;;
6679;SDS011;3376;42.664;23.346;2024-01-25T00:18:30;24.97;;;16.70;;
6679;SDS011;3376;42.664;23.346;2024-01-25T00:20:57;23.07;;;17.73;;
6679;SDS011;3376;42.664;23.346;2024-01-25T00:23:25;24.83;;;17.47;;
6679;SDS011;3376;42.664;23.346;2024-01-25T00:25:52;24.80;;;17.27;;
6679;SDS011;3376;42.664;23.346;2024-01-25T00:28:23;17.30;;;14.80;;
6679;SDS011;3376;42.664;23.346;2024-01-25T00:30:50;14.70;;;12.97;;
6679;SDS011;3376;42.664;23.346;2024-01-25T00:33:17;18.23;;;13.37;;
6679;SDS011;3376;42.664;23.346;2024-01-25T00:35:44;18.77;;;16.07;;
6679;SDS011;3376;42.664;23.346;2024-01-25T00:38:12;18.83;;;15.00;;
6679;SDS011;3376;42.664;23.346;2024-01-25T00:40:41;20.43;;;16.20;;
6679;SDS011;3376;42.664;23.346;2024-01-25T00:43:08;17.83;;;14.63;;
6679;SDS011;3376;42.664;23.346;2024-01-25T00:45:36;21.53;;;15.37;;
6679;SDS011;3376;42.664;23.346;2024-01-25T00:48:04;20.73;;;15.00;;
6679;SDS011;3376;42.664;23.346;2024-01-25T00:50:32;17.37;;;15.13;;
6679;SDS011;3376;42.664;23.346;2024-01-25T00:52:59;21.43;;;14.73;;
6679;SDS011;3376;42.664;23.346;2024-01-25T00:55:27;18.53;;;14.93;;
6679;SDS011;3376;42.664;23.346;2024-01-25T00:57:56;19.93;;;15.67;;
6679;SDS011;3376;42.664;23.346;2024-01-25T01:00:25;18.43;;;14.37;;
6679;SDS011;3376;42.664;23.346;2024-01-25T01:02:53;27.03;;;16.80;;
6679;SDS011;3376;42.664;23.346;2024-01-25T01:05:20;23.60;;;15.67;;
6679;SDS011;3376;42.664;23.346;2024-01-25T01:07:50;19.53;;;16.33;;
6679;SDS011;3376;42.664;23.346;2024-01-25T01:10:17;17.37;;;15.53;;
6679;SDS011;3376;42.664;23.346;2024-01-25T01:12:44;17.87;;;15.53;;
6679;SDS011;3376;42.664;23.346;2024-01-25T01:15:13;21.30;;;16.13;;
6679;SDS011;3376;42.664;23.346;2024-01-25T01:17:40;18.37;;;14.90;;
6679;SDS011;3376;42.664;23.346;2024-01-25T01:20:07;20.70;;;15.47;;
6679;SDS011;3376;42.664;23.346;2024-01-25T01:22:34;20.90;;;15.80;;
6679;SDS011;3376;42.664;23.346;2024-01-25T01:25:01;23.67;;;16.77;;
6679;SDS011;3376;42.664;23.346;2024-01-25T01:27:28;19.93;;;16.87;;
6679;SDS011;3376;42.664;23.346;2024-01-25T01:29:55;26.67;;;19.83;;
6679;SDS011;3376;42.664;23.346;2024-01-25T01:32:23;33.70;;;21.93;;
6679;SDS011;3376;42.664;23.346;2024-01-25T01:34:50;35.33;;;23.53;;
6679;SDS011;3376;42.664;23.346;2024-01-25T01:37:17;33.90;;;23.63;;
6679;SDS011;3376;42.664;23.346;2024-01-25T01:39:46;33.27;;;22.30;;
6679;SDS011;3376;42.664;23.346;2024-01-25T01:42:12;35.03;;;23.93;;
6679;SDS011;3376;42.664;23.346;2024-01-25T01:44:39;30.27;;;22.43;;
6679;SDS011;3376;42.664;23.346;2024-01-25T01:47:07;27.27;;;21.07;;
6679;SDS011;3376;42.664;23.346;2024-01-25T01:49:35;31.63;;;22.20;;
6679;SDS011;3376;42.664;23.346;2024-01-25T01:52:02;26.83;;;20.67;;
6679;SDS011;3376;42.664;23.346;2024-01-25T01:54:30;27.33;;;21.70;;
6679;SDS011;3376;42.664;23.346;2024-01-25T01:56:57;30.40;;;20.87;;
6679;SDS011;3376;42.664;23.346;2024-01-25T01:59:25;27.53;;;20.37;;
6679;SDS011;3376;42.664;23.346;2024-01-25T02:01:52;28.37;;;19.87;;
6679;SDS011;3376;42.664;23.346;2024-01-25T02:04:18;26.77;;;20.47;;
6679;SDS011;3376;42.664;23.346;2024-01-25T02:06:47;31.20;;;21.67;;
6679;SDS011;3376;42.664;23.346;2024-01-25T02:09:14;34.20;;;24.43;;
6679;SDS011;3376;42.664;23.346;2024-01-25T02:11:41;35.03;;;21.43;;
6679;SDS011;3376;42.664;23.346;2024-01-25T02:14:08;33.00;;;21.70;;
6679;SDS011;3376;42.664;23.346;2024-01-25T02:16:37;33.23;;;21.07;;
6679;SDS011;3376;42.664;23.346;2024-01-25T02:19:04;35.33;;;19.20;;
6679;SDS011;3376;42.664;23.346;2024-01-25T02:21:31;26.17;;;18.07;;
6679;SDS011;3376;42.664;23.346;2024-01-25T02:23:59;22.40;;;17.30;;
6679;SDS011;3376;42.664;23.346;2024-01-25T02:26:26;19.70;;;15.63;;
6679;SDS011;3376;42.664;23.346;2024-01-25T02:28:53;17.07;;;15.27;;
6679;SDS011;3376;42.664;23.346;2024-01-25T02:31:20;18.10;;;14.17;;
6679;SDS011;3376;42.664;23.346;2024-01-25T02:33:47;16.30;;;14.60;;
6679;SDS011;3376;42.664;23.346;2024-01-25T02:36:14;18.63;;;13.57;;
6679;SDS011;3376;42.664;23.346;2024-01-25T02:38:41;15.27;;;13.57;;
6679;SDS011;3376;42.664;23.346;2024-01-25T02:41:09;17.37;;;14.50;;
6679;SDS011;3376;42.664;23.346;2024-01-25T02:43:36;19.03;;;15.60;;
6679;SDS011;3376;42.664;23.346;2024-01-25T02:46:03;16.70;;;13.57;;
6679;SDS011;3376;42.664;23.346;2024-01-25T02:48:30;16.47;;;13.33;;
6679;SDS011;3376;42.664;23.346;2024-01-25T02:50:57;15.47;;;13.63;;
6679;SDS011;3376;42.664;23.346;2024-01-25T02:53:24;15.30;;;13.80;;
6679;SDS011;3376;42.664;23.346;2024-01-25T02:55:51;15.63;;;13.33;;
6679;SDS011;3376;42.664;23.346;2024-01-25T02:58:20;15.53;;;13.10;;
6679;SDS011;3376;42.664;23.346;2024-01-25T03:00:47;19.07;;;13.40;;
6679;SDS011;3376;42.664;23.346;2024-01-25T03:03:14;14.47;;;12.63;;
6679;SDS011;3376;42.664;23.346;2024-01-25T03:05:41;13.77;;;11.97;;
6679;SDS011;3376;42.664;23.346;2024-01-25T03:08:08;13.37;;;11.17;;
6679;SDS011;3376;42.664;23.346;2024-01-25T03:10:35;14.07;;;12.60;;
6679;SDS011;3376;42.664;23.346;2024-01-25T03:13:02;7.60;;;7.20;;
6679;SDS011;3376;42.664;23.346;2024-01-25T03:15:31;3.60;;;3.40;;
6679;SDS011;3376;42.664;23.346;2024-01-25T03:17:58;2.77;;;2.43;;
6679;SDS011;3376;42.664;23.346;2024-01-25T03:20:25;1.53;;;1.43;;
6679;SDS011;3376;42.664;23.346;2024-01-25T03:22:51;1.63;;;1.53;;
6679;SDS011;3376;42.664;23.346;2024-01-25T03:25:19;1.00;;;1.00;;
6679;SDS011;3376;42.664;23.346;2024-01-25T03:27:46;1.33;;;1.23;;
6679;SDS011;3376;42.664;23.346;2024-01-25T03:30:13;0.97;;;0.80;;
6679;SDS011;3376;42.664;23.346;2024-01-25T03:32:42;0.60;;;0.60;;
6679;SDS011;3376;42.664;23.346;2024-01-25T03:35:09;0.60;;;0.60;;
6679;SDS011;3376;42.664;23.346;2024-01-25T03:37:36;0.60;;;0.60;;
6679;SDS011;3376;42.664;23.346;2024-01-25T03:40:03;3.07;;;0.50;;
6679;SDS011;3376;42.664;23.346;2024-01-25T03:42:31;0.50;;;0.50;;
6679;SDS011;3376;42.664;23.346;2024-01-25T03:44:58;0.63;;;0.63;;
6679;SDS011;3376;42.664;23.346;2024-01-25T03:47:25;0.57;;;0.57;;
6679;SDS011;3376;42.664;23.346;2024-01-25T03:49:53;1.30;;;0.47;;
6679;SDS011;3376;42.664;23.346;2024-01-25T03:52:20;0.97;;;0.97;;
6679;SDS011;3376;42.664;23.346;2024-01-25T03:54:47;0.67;;;0.67;;
6679;SDS011;3376;42.664;23.346;2024-01-25T03:57:14;1.47;;;0.90;;
6679;SDS011;3376;42.664;23.346;2024-01-25T03:59:41;2.20;;;0.60;;
6679;SDS011;3376;42.664;23.346;2024-01-25T04:02:08;1.13;;;0.73;;
6679;SDS011;3376;42.664;23.346;2024-01-25T04:04:36;0.63;;;0.63;;
6679;SDS011;3376;42.664;23.346;2024-01-25T04:07:04;0.50;;;0.50;;
6679;SDS011;3376;42.664;23.346;2024-01-25T04:09:31;0.80;;;0.80;;
6679;SDS011;3376;42.664;23.346;2024-01-25T04:11:58;0.67;;;0.67;;
6679;SDS011;3376;42.664;23.346;2024-01-25T04:14:26;0.60;;;0.60;;
6679;SDS011;3376;42.664;23.346;2024-01-25T04:16:53;2.30;;;0.57;;
6679;SDS011;3376;42.664;23.346;2024-01-25T04:19:20;0.77;;;0.77;;
6679;SDS011;3376;42.664;23.346;2024-01-25T04:21:46;1.23;;;1.03;;
6679;SDS011;3376;42.664;23.346;2024-01-25T04:24:15;0.70;;;0.70;;
6679;SDS011;3376;42.664;23.346;2024-01-25T04:26:42;0.57;;;0.57;;
6679;SDS011;3376;42.664;23.346;2024-01-25T04:29:10;1.60;;;0.80;;
6679;SDS011;3376;42.664;23.346;2024-01-25T04:31:42;0.60;;;0.60;;
6679;SDS011;3376;42.664;23.346;2024-01-25T04:34:10;0.93;;;0.93;;
6679;SDS011;3376;42.664;23.346;2024-01-25T04:36:37;1.77;;;0.77;;
6679;SDS011;3376;42.664;23.346;2024-01-25T04:39:04;2.57;;;0.80;;
6679;SDS011;3376;42.664;23.346;2024-01-25T04:41:33;1.60;;;1.50;;
6679;SDS011;3376;42.664;23.346;2024-01-25T04:44:00;1.60;;;1.50;;
6679;SDS011;3376;42.664;23.346;2024-01-25T04:46:26;2.73;;;1.60;;
6679;SDS011;3376;42.664;23.346;2024-01-25T04:48:53;2.27;;;2.17;;
6679;SDS011;3376;42.664;23.346;2024-01-25T04:51:20;2.30;;;2.10;;
6679;SDS011;3376;42.664;23.346;2024-01-25T04:53:48;2.37;;;2.23;;
6679;SDS011;3376;42.664;23.346;2024-01-25T04:56:14;2.63;;;2.43;;
6679;SDS011;3376;42.664;23.346;2024-01-25T04:58:43;2.70;;;2.50;;
6679;SDS011;3376;42.664;23.346;2024-01-25T05:01:10;3.63;;;2.17;;
6679;SDS011;3376;42.664;23.346;2024-01-25T05:03:37;3.10;;;2.87;;
6679;SDS011;3376;42.664;23.346;2024-01-25T05:06:04;2.93;;;2.73;;
6679;SDS011;3376;42.664;23.346;2024-01-25T05:08:31;3.07;;;2.80;;
6679;SDS011;3376;42.664;23.346;2024-01-25T05:10:58;2.27;;;2.17;;
6679;SDS011;3376;42.664;23.346;2024-01-25T05:13:25;2.70;;;2.23;;
6679;SDS011;3376;42.664;23.346;2024-01-25T05:15:53;2.03;;;1.93;;
6679;SDS011;3376;42.664;23.346;2024-01-25T05:18:20;1.80;;;1.70;;
6679;SDS011;3376;42.664;23.346;2024-01-25T05:20:47;2.03;;;1.93;;
6679;SDS011;3376;42.664;23.346;2024-01-25T05:23:14;11.03;;;2.43;;
6679;SDS011;3376;42.664;23.346;2024-01-25T05:25:41;4.23;;;2.20;;
6679;SDS011;3376;42.664;23.346;2024-01-25T05:28:08;2.70;;;1.60;;
6679;SDS011;3376;42.664;23.346;2024-01-25T05:30:35;2.20;;;2.07;;
6679;SDS011;3376;42.664;23.346;2024-01-25T05:33:04;2.20;;;2.00;;
6679;SDS011;3376;42.664;23.346;2024-01-25T05:35:31;2.47;;;1.40;;
6679;SDS011;3376;42.664;23.346;2024-01-25T05:37:59;1.20;;;1.10;;
6679;SDS011;3376;42.664;23.346;2024-01-25T05:40:26;1.57;;;1.20;;
6679;SDS011;3376;42.664;23.346;2024-01-25T05:42:52;1.40;;;1.30;;
6679;SDS011;3376;42.664;23.346;2024-01-25T05:45:19;2.73;;;1.53;;
6679;SDS011;3376;42.664;23.346;2024-01-25T05:47:46;1.23;;;1.13;;
6679;SDS011;3376;42.664;23.346;2024-01-25T05:50:15;0.87;;;0.87;;
6679;SDS011;3376;42.664;23.346;2024-01-25T05:52:42;1.10;;;1.00;;
6679;SDS011;3376;42.664;23.346;2024-01-25T05:55:09;5.43;;;1.40;;
6679;SDS011;3376;42.664;23.346;2024-01-25T05:57:36;1.27;;;1.03;;
6679;SDS011;3376;42.664;23.346;2024-01-25T06:00:04;4.03;;;1.60;;
6679;SDS011;3376;42.664;23.346;2024-01-25T06:02:32;3.63;;;1.47;;
6679;SDS011;3376;42.664;23.346;2024-01-25T06:04:59;4.00;;;1.20;;
6679;SDS011;3376;42.664;23.346;2024-01-25T06:07:28;2.37;;;1.40;;
6679;SDS011;3376;42.664;23.346;2024-01-25T06:09:55;1.80;;;1.70;;
6679;SDS011;3376;42.664;23.346;2024-01-25T06:12:22;1.60;;;1.50;;
6679;SDS011;3376;42.664;23.346;2024-01-25T06:14:49;1.30;;;1.20;;
6679;SDS011;3376;42.664;23.346;2024-01-25T06:17:17;2.60;;;1.70;;
6679;SDS011;3376;42.664;23.346;2024-01-25T06:19:44;3.40;;;1.47;;
6679;SDS011;3376;42.664;23.346;2024-01-25T06:22:11;1.73;;;1.17;;
6679;SDS011;3376;42.664;23.346;2024-01-25T06:24:40;1.27;;;1.17;;
6679;SDS011;3376;42.664;23.346;2024-01-25T06:27:07;1.67;;;1.27;;
6679;SDS011;3376;42.664;23.346;2024-01-25T06:29:33;1.33;;;1.30;;
6679;SDS011;3376;42.664;23.346;2024-01-25T06:32:00;1.50;;;1.40;;
6679;SDS011;3376;42.664;23.346;2024-01-25T06:34:27;1.50;;;1.40;;
6679;SDS011;3376;42.664;23.346;2024-01-25T06:36:54;1.50;;;1.30;;
6679;SDS011;3376;42.664;23.346;2024-01-25T06:39:21;4.17;;;1.90;;
6679;SDS011;3376;42.664;23.346;2024-01-25T06:41:50;1.87;;;1.67;;
6679;SDS011;3376;42.664;23.346;2024-01-25T06:44:17;1.90;;;1.53;;
6679;SDS011;3376;42.664;23.346;2024-01-25T06:46:44;1.57;;;1.40;;
6679;SDS011;3376;42.664;23.346;2024-01-25T06:49:11;1.73;;;1.53;;
6679;SDS011;3376;42.664;23.346;2024-01-25T06:51:38;1.33;;;1.07;;
6679;SDS011;3376;42.664;23.346;2024-01-25T06:54:05;2.47;;;1.33;;
6679;SDS011;3376;42.664;23.346;2024-01-25T06:56:33;1.40;;;1.30;;
6679;SDS011;3376;42.664;23.346;2024-01-25T06:59:02;3.60;;;1.53;;
6679;SDS011;3376;42.664;23.346;2024-01-25T07:01:29;1.80;;;1.70;;
6679;SDS011;3376;42.664;23.346;2024-01-25T07:03:56;2.60;;;1.37;;
6679;SDS011;3376;42.664;23.346;2024-01-25T07:06:23;2.67;;;1.33;;
6679;SDS011;3376;42.664;23.346;2024-01-25T07:08:51;2.87;;;1.70;;
6679;SDS011;3376;42.664;23.346;2024-01-25T07:11:19;1.40;;;1.30;;
6679;SDS011;3376;42.664;23.346;2024-01-25T07:13:46;2.50;;;1.53;;
6679;SDS011;3376;42.664;23.346;2024-01-25T07:16:14;4.17;;;2.27;;
6679;SDS011;3376;42.664;23.346;2024-01-25T07:18:41;6.00;;;1.80;;
6679;SDS011;3376;42.664;23.346;2024-01-25T07:21:08;1.40;;;1.30;;
6679;SDS011;3376;42.664;23.346;2024-01-25T07:23:35;3.30;;;2.03;;
6679;SDS011;3376;42.664;23.346;2024-01-25T07:26:02;1.50;;;1.40;;
6679;SDS011;3376;42.664;23.346;2024-01-25T07:28:30;1.73;;;1.63;;
6679;SDS011;3376;42.664;23.346;2024-01-25T07:30:57;1.70;;;1.60;;
6679;SDS011;3376;42.664;23.346;2024-01-25T07:33:26;4.70;;;2.57;;
6679;SDS011;3376;42.664;23.346;2024-01-25T07:35:53;6.63;;;2.37;;
6679;SDS011;3376;42.664;23.346;2024-01-25T07:38:23;2.70;;;1.90;;
6679;SDS011;3376;42.664;23.346;2024-01-25T07:40:50;2.60;;;1.90;;
6679;SDS011;3376;42.664;23.346;2024-01-25T07:43:18;2.60;;;1.77;;
6679;SDS011;3376;42.664;23.346;2024-01-25T07:45:45;6.27;;;2.27;;
6679;SDS011;3376;42.664;23.346;2024-01-25T07:48:12;5.23;;;4.80;;
6679;SDS011;3376;42.664;23.346;2024-01-25T07:50:40;2.10;;;1.70;;
6679;SDS011;3376;42.664;23.346;2024-01-25T07:53:07;6.03;;;2.93;;
6679;SDS011;3376;42.664;23.346;2024-01-25T07:55:34;5.07;;;2.63;;
6679;SDS011;3376;42.664;23.346;2024-01-25T07:58:01;4.93;;;2.20;;
6679;SDS011;3376;42.664;23.346;2024-01-25T08:00:28;1.67;;;1.40;;
6679;SDS011;3376;42.664;23.346;2024-01-25T08:02:55;5.43;;;2.50;;
6679;SDS011;3376;42.664;23.346;2024-01-25T08:05:22;2.47;;;2.27;;
6679;SDS011;3376;42.664;23.346;2024-01-25T08:07:51;2.10;;;1.90;;
6679;SDS011;3376;42.664;23.346;2024-01-25T08:10:18;2.00;;;1.90;;
6679;SDS011;3376;42.664;23.346;2024-01-25T08:12:45;1.67;;;1.53;;
6679;SDS011;3376;42.664;23.346;2024-01-25T08:15:13;5.23;;;2.13;;
6679;SDS011;3376;42.664;23.346;2024-01-25T08:17:40;4.80;;;2.43;;
6679;SDS011;3376;42.664;23.346;2024-01-25T08:20:08;8.37;;;2.00;;
6679;SDS011;3376;42.664;23.346;2024-01-25T08:22:36;6.30;;;2.50;;
6679;SDS011;3376;42.664;23.346;2024-01-25T08:25:05;4.67;;;2.17;;
6679;SDS011;3376;42.664;23.346;2024-01-25T08:27:32;2.40;;;1.90;;
6679;SDS011;3376;42.664;23.346;2024-01-25T08:29:59;2.77;;;2.03;;
6679;SDS011;3376;42.664;23.346;2024-01-25T08:32:28;3.47;;;2.57;;
6679;SDS011;3376;42.664;23.346;2024-01-25T08:34:55;6.00;;;2.17;;
6679;SDS011;3376;42.664;23.346;2024-01-25T08:37:22;2.30;;;1.90;;
6679;SDS011;3376;42.664;23.346;2024-01-25T08:39:49;5.53;;;2.63;;
6679;SDS011;3376;42.664;23.346;2024-01-25T08:42:17;3.13;;;2.83;;
6679;SDS011;3376;42.664;23.346;2024-01-25T08:44:45;6.07;;;4.93;;
6679;SDS011;3376;42.664;23.346;2024-01-25T08:47:15;2.67;;;2.47;;
6679;SDS011;3376;42.664;23.346;2024-01-25T08:49:43;4.10;;;2.20;;
6679;SDS011;3376;42.664;23.346;2024-01-25T08:52:10;3.50;;;2.10;;
6679;SDS011;3376;42.664;23.346;2024-01-25T08:54:37;3.97;;;2.13;;
6679;SDS011;3376;42.664;23.346;2024-01-25T08:57:04;2.10;;;1.67;;
6679;SDS011;3376;42.664;23.346;2024-01-25T08:59:33;2.53;;;2.33;;
6679;SDS011;3376;42.664;23.346;2024-01-25T09:02:03;4.07;;;2.37;;
6679;SDS011;3376;42.664;23.346;2024-01-25T09:04:31;2.07;;;1.87;;
6679;SDS011;3376;42.664;23.346;2024-01-25T09:06:58;3.43;;;2.07;;
6679;SDS011;3376;42.664;23.346;2024-01-25T09:09:25;3.00;;;2.03;;
6679;SDS011;3376;42.664;23.346;2024-01-25T09:11:52;4.67;;;2.27;;
6679;SDS011;3376;42.664;23.346;2024-01-25T09:14:19;3.40;;;2.50;;
6679;SDS011;3376;42.664;23.346;2024-01-25T09:16:48;3.80;;;2.40;;
6679;SDS011;3376;42.664;23.346;2024-01-25T09:19:16;6.43;;;2.07;;
6679;SDS011;3376;42.664;23.346;2024-01-25T09:21:43;9.17;;;2.37;;
6679;SDS011;3376;42.664;23.346;2024-01-25T09:24:10;2.37;;;2.17;;
6679;SDS011;3376;42.664;23.346;2024-01-25T09:26:36;4.07;;;2.27;;
6679;SDS011;3376;42.664;23.346;2024-01-25T09:29:03;2.70;;;2.10;;
6679;SDS011;3376;42.664;23.346;2024-01-25T09:31:31;8.97;;;2.47;;
6679;SDS011;3376;42.664;23.346;2024-01-25T09:33:59;4.30;;;2.30;;
6679;SDS011;3376;42.664;23.346;2024-01-25T09:36:26;3.57;;;2.50;;
6679;SDS011;3376;42.664;23.346;2024-01-25T09:38:53;2.17;;;2.00;;
6679;SDS011;3376;42.664;23.346;2024-01-25T09:41:20;2.60;;;1.97;;
6679;SDS011;3376;42.664;23.346;2024-01-25T09:43:47;3.33;;;3.00;;
6679;SDS011;3376;42.664;23.346;2024-01-25T09:46:14;2.97;;;2.20;;
6679;SDS011;3376;42.664;23.346;2024-01-25T09:49:00;2.83;;;2.60;;
6679;SDS011;3376;42.664;23.346;2024-01-25T09:51:28;2.07;;;1.93;;
6679;SDS011;3376;42.664;23.346;2024-01-25T09:53:59;2.57;;;2.37;;
6679;SDS011;3376;42.664;23.346;2024-01-25T09:56:27;6.20;;;2.90;;
6679;SDS011;3376;42.664;23.346;2024-01-25T09:58:57;5.73;;;3.27;;
6679;SDS011;3376;42.664;23.346;2024-01-25T10:01:25;4.77;;;2.70;;
6679;SDS011;3376;42.664;23.346;2024-01-25T10:03:52;91.67;;;30.73;;
6679;SDS011;3376;42.664;23.346;2024-01-25T10:06:22;34.73;;;14.87;;
6679;SDS011;3376;42.664;23.346;2024-01-25T10:08:50;10.77;;;6.63;;
6679;SDS011;3376;42.664;23.346;2024-01-25T10:11:17;7.87;;;5.47;;
6679;SDS011;3376;42.664;23.346;2024-01-25T10:13:45;6.73;;;3.73;;
6679;SDS011;3376;42.664;23.346;2024-01-25T10:16:16;4.53;;;3.90;;
6679;SDS011;3376;42.664;23.346;2024-01-25T10:18:45;4.47;;;4.07;;
6679;SDS011;3376;42.664;23.346;2024-01-25T10:21:13;6.07;;;4.17;;
6679;SDS011;3376;42.664;23.346;2024-01-25T10:23:44;6.17;;;3.60;;
6679;SDS011;3376;42.664;23.346;2024-01-25T10:26:12;3.30;;;3.10;;
6679;SDS011;3376;42.664;23.346;2024-01-25T10:28:39;4.97;;;3.60;;
6679;SDS011;3376;42.664;23.346;2024-01-25T10:31:06;4.30;;;3.63;;
6679;SDS011;3376;42.664;23.346;2024-01-25T10:33:34;4.77;;;3.83;;
6679;SDS011;3376;42.664;23.346;2024-01-25T10:36:04;4.30;;;3.17;;
6679;SDS011;3376;42.664;23.346;2024-01-25T10:38:34;4.70;;;2.77;;
6679;SDS011;3376;42.664;23.346;2024-01-25T10:41:04;3.20;;;2.80;;
6679;SDS011;3376;42.664;23.346;2024-01-25T10:43:32;4.03;;;3.63;;
6679;SDS011;3376;42.664;23.346;2024-01-25T10:45:59;4.00;;;3.60;;
6679;SDS011;3376;42.664;23.346;2024-01-25T10:48:27;4.33;;;3.40;;
6679;SDS011;3376;42.664;23.346;2024-01-25T10:50:54;3.60;;;3.30;;
6679;SDS011;3376;42.664;23.346;2024-01-25T10:53:21;3.43;;;3.13;;
6679;SDS011;3376;42.664;23.346;2024-01-25T10:55:50;4.50;;;3.77;;
6679;SDS011;3376;42.664;23.346;2024-01-25T10:58:18;6.27;;;3.37;;
6679;SDS011;3376;42.664;23.346;2024-01-25T11:00:50;5.63;;;3.23;;
6679;SDS011;3376;42.664;23.346;2024-01-25T11:03:18;5.60;;;4.03;;
6679;SDS011;3376;42.664;23.346;2024-01-25T11:05:46;3.80;;;3.33;;
6679;SDS011;3376;42.664;23.346;2024-01-25T11:08:18;3.80;;;3.13;;
6679;SDS011;3376;42.664;23.346;2024-01-25T11:10:48;3.70;;;2.70;;
6679;SDS011;3376;42.664;23.346;2024-01-25T11:13:23;5.13;;;3.63;;
6679;SDS011;3376;42.664;23.346;2024-01-25T11:15:51;6.17;;;2.60;;
6679;SDS011;3376;42.664;23.346;2024-01-25T11:18:18;4.87;;;3.20;;
6679;SDS011;3376;42.664;23.346;2024-01-25T11:20:46;5.17;;;3.57;;
6679;SDS011;3376;42.664;23.346;2024-01-25T11:23:15;5.20;;;3.53;;
6679;SDS011;3376;42.664;23.346;2024-01-25T11:25:44;5.80;;;3.13;;
6679;SDS011;3376;42.664;23.346;2024-01-25T11:28:12;9.17;;;3.57;;
6679;SDS011;3376;42.664;23.346;2024-01-25T11:30:43;8.77;;;3.37;;
6679;SDS011;3376;42.664;23.346;2024-01-25T11:33:10;5.53;;;3.50;;
6679;SDS011;3376;42.664;23.346;2024-01-25T11:35:39;4.07;;;3.00;;
6679;SDS011;3376;42.664;23.346;2024-01-25T11:38:07;8.27;;;3.30;;
6679;SDS011;3376;42.664;23.346;2024-01-25T11:40:34;3.10;;;2.50;;
6679;SDS011;3376;42.664;23.346;2024-01-25T11:43:01;7.37;;;3.67;;
6679;SDS011;3376;42.664;23.346;2024-01-25T11:45:28;5.43;;;2.97;;
6679;SDS011;3376;42.664;23.346;2024-01-25T11:47:56;4.13;;;2.20;;
6679;SDS011;3376;42.664;23.346;2024-01-25T11:50:24;9.60;;;2.53;;
6679;SDS011;3376;42.664;23.346;2024-01-25T11:52:51;4.03;;;2.50;;
6679;SDS011;3376;42.664;23.346;2024-01-25T11:55:17;3.97;;;2.70;;
6679;SDS011;3376;42.664;23.346;2024-01-25T11:57:44;4.00;;;2.50;;
6679;SDS011;3376;42.664;23.346;2024-01-25T12:00:13;3.87;;;2.03;;
6679;SDS011;3376;42.664;23.346;2024-01-25T12:02:41;3.03;;;2.10;;
6679;SDS011;3376;42.664;23.346;2024-01-25T12:05:10;3.07;;;2.77;;
6679;SDS011;3376;42.664;23.346;2024-01-25T12:07:39;3.40;;;1.93;;
6679;SDS011;3376;42.664;23.346;2024-01-25T12:10:06;5.87;;;3.47;;
6679;SDS011;3376;42.664;23.346;2024-01-25T12:12:35;6.83;;;3.33;;
6679;SDS011;3376;42.664;23.346;2024-01-25T12:15:04;2.50;;;2.30;;
6679;SDS011;3376;42.664;23.346;2024-01-25T12:17:32;6.23;;;2.37;;
6679;SDS011;3376;42.664;23.346;2024-01-25T12:20:01;2.97;;;2.30;;
6679;SDS011;3376;42.664;23.346;2024-01-25T12:22:34;4.23;;;2.43;;
6679;SDS011;3376;42.664;23.346;2024-01-25T12:25:01;4.20;;;2.50;;
6679;SDS011;3376;42.664;23.346;2024-01-25T12:27:28;4.47;;;2.60;;
6679;SDS011;3376;42.664;23.346;2024-01-25T12:29:57;4.40;;;2.27;;
6679;SDS011;3376;42.664;23.346;2024-01-25T12:32:24;3.97;;;2.17;;
6679;SDS011;3376;42.664;23.346;2024-01-25T12:34:54;2.50;;;1.90;;
6679;SDS011;3376;42.664;23.346;2024-01-25T12:37:21;2.63;;;2.10;;
6679;SDS011;3376;42.664;23.346;2024-01-25T12:39:51;2.23;;;1.90;;
6679;SDS011;3376;42.664;23.346;2024-01-25T12:42:18;2.33;;;2.23;;
6679;SDS011;3376;42.664;23.346;2024-01-25T12:44:45;2.50;;;2.23;;
6679;SDS011;3376;42.664;23.346;2024-01-25T12:47:12;2.43;;;2.03;;
6679;SDS011;3376;42.664;23.346;2024-01-25T12:49:40;3.50;;;1.93;;
6679;SDS011;3376;42.664;23.346;2024-01-25T12:52:07;2.70;;;2.10;;
6679;SDS011;3376;42.664;23.346;2024-01-25T12:54:35;3.73;;;1.80;;
6679;SDS011;3376;42.664;23.346;2024-01-25T12:57:04;3.67;;;2.17;;
6679;SDS011;3376;42.664;23.346;2024-01-25T12:59:31;5.97;;;2.30;;
6679;SDS011;3376;42.664;23.346;2024-01-25T13:01:59;3.70;;;2.00;;
6679;SDS011;3376;42.664;23.346;2024-01-25T13:04:26;2.37;;;1.93;;
6679;SDS011;3376;42.664;23.346;2024-01-25T13:06:54;3.60;;;2.37;;
6679;SDS011;3376;42.664;23.346;2024-01-25T13:09:22;3.13;;;1.93;;
6679;SDS011;3376;42.664;23.346;2024-01-25T13:11:49;4.40;;;2.20;;
6679;SDS011;3376;42.664;23.346;2024-01-25T13:14:18;6.17;;;1.80;;
6679;SDS011;3376;42.664;23.346;2024-01-25T13:16:45;3.67;;;1.83;;
6679;SDS011;3376;42.664;23.346;2024-01-25T13:19:12;3.53;;;2.03;;
6679;SDS011;3376;42.664;23.346;2024-01-25T13:21:40;3.50;;;2.10;;
6679;SDS011;3376;42.664;23.346;2024-01-25T13:24:07;5.77;;;2.43;;
6679;SDS011;3376;42.664;23.346;2024-01-25T13:26:35;2.70;;;2.07;;
6679;SDS011;3376;42.664;23.346;2024-01-25T13:29:02;3.47;;;2.30;;
6679;SDS011;3376;42.664;23.346;2024-01-25T13:31:30;5.00;;;2.37;;
6679;SDS011;3376;42.664;23.346;2024-01-25T13:33:57;3.93;;;2.70;;
6679;SDS011;3376;42.664;23.346;2024-01-25T13:36:24;3.40;;;2.00;;
6679;SDS011;3376;42.664;23.346;2024-01-25T13:38:51;3.67;;;2.20;;
6679;SDS011;3376;42.664;23.346;2024-01-25T13:41:18;4.93;;;2.27;;
6679;SDS011;3376;42.664;23.346;2024-01-25T13:43:45;2.67;;;2.30;;
6679;SDS011;3376;42.664;23.346;2024-01-25T13:46:12;2.67;;;2.47;;
6679;SDS011;3376;42.664;23.346;2024-01-25T13:48:41;3.47;;;2.53;;
6679;SDS011;3376;42.664;23.346;2024-01-25T13:51:07;3.27;;;2.73;;
6679;SDS011;3376;42.664;23.346;2024-01-25T13:53:34;3.60;;;2.33;;
6679;SDS011;3376;42.664;23.346;2024-01-25T13:56:02;6.10;;;2.53;;
6679;SDS011;3376;42.664;23.346;2024-01-25T13:58:29;4.60;;;2.57;;
6679;SDS011;3376;42.664;23.346;2024-01-25T14:00:56;3.20;;;2.03;;
6679;SDS011;3376;42.664;23.346;2024-01-25T14:03:23;11.40;;;2.33;;
6679;SDS011;3376;42.664;23.346;2024-01-25T14:05:51;4.03;;;2.20;;
6679;SDS011;3376;42.664;23.346;2024-01-25T14:08:20;5.53;;;2.50;;
6679;SDS011;3376;42.664;23.346;2024-01-25T14:10:47;6.17;;;2.40;;
6679;SDS011;3376;42.664;23.346;2024-01-25T14:13:14;2.77;;;2.23;;
6679;SDS011;3376;42.664;23.346;2024-01-25T14:15:41;4.43;;;2.53;;
6679;SDS011;3376;42.664;23.346;2024-01-25T14:18:08;4.00;;;2.40;;
6679;SDS011;3376;42.664;23.346;2024-01-25T14:20:34;3.23;;;2.33;;
6679;SDS011;3376;42.664;23.346;2024-01-25T14:23:04;4.47;;;2.63;;
6679;SDS011;3376;42.664;23.346;2024-01-25T14:25:31;3.33;;;2.30;;
6679;SDS011;3376;42.664;23.346;2024-01-25T14:27:58;5.80;;;2.53;;
6679;SDS011;3376;42.664;23.346;2024-01-25T14:30:25;3.63;;;2.67;;
6679;SDS011;3376;42.664;23.346;2024-01-25T14:32:52;2.57;;;2.37;;
6679;SDS011;3376;42.664;23.346;2024-01-25T14:35:21;4.80;;;2.20;;
6679;SDS011;3376;42.664;23.346;2024-01-25T14:37:53;5.87;;;2.30;;
6679;SDS011;3376;42.664;23.346;2024-01-25T14:40:21;2.23;;;2.00;;
6679;SDS011;3376;42.664;23.346;2024-01-25T14:42:48;4.57;;;2.50;;
6679;SDS011;3376;42.664;23.346;2024-01-25T14:45:15;4.10;;;2.17;;
6679;SDS011;3376;42.664;23.346;2024-01-25T14:47:42;4.00;;;2.10;;
6679;SDS011;3376;42.664;23.346;2024-01-25T14:50:09;5.57;;;2.23;;
6679;SDS011;3376;42.664;23.346;2024-01-25T14:52:36;5.47;;;2.63;;
6679;SDS011;3376;42.664;23.346;2024-01-25T14:55:03;4.27;;;2.27;;
6679;SDS011;3376;42.664;23.346;2024-01-25T14:57:32;4.97;;;2.43;;